< < Back
Terminal Aerodrome Forecast


Current Version              Previous Versions:   1  2  3  4  5  6  7  8  9  

Terminal Aerodrome Forecast

541
FTUS42 KJAX 261120
TAFSSI
TAF
KSSI 261120Z 2612/2712 25012G20KT P6SM SCT020
     FM261600 26014G24KT P6SM SCT050 BKN250
     FM262200 23009KT P6SM VCSH SCT040 BKN150 BKN250
     FM270200 28006KT P6SM SCT250=

Latest METAR

945
SAUS70 KWBC 261500 RRJ
MTRSSI
METAR KSSI 261453Z AUTO 27010KT 10SM CLR 26/19 A2972 RMK AO2 SLP064
T02610189 58000


USA.gov is the U.S. government's official web portal to all federal, state and local government web resources and services.